createdAt,value
2017-12-27T00:04:18.512Z,35.92
2017-12-27T00:09:03.468Z,35.95
2017-12-27T00:23:03.549Z,36.08
2017-12-27T00:27:43.790Z,36.04
2017-12-27T00:46:38.503Z,35.78
2017-12-27T00:49:11.984Z,35.87
2017-12-27T00:51:47.723Z,35.86
2017-12-27T01:00:17.153Z,35.71
2017-12-27T01:05:40.896Z,35.59
2017-12-27T01:08:19.443Z,35.73
2017-12-27T01:10:56.352Z,35.82
2017-12-27T01:35:16.220Z,35.88
2017-12-27T01:37:50.107Z,35.87
2017-12-27T01:40:24.179Z,35.54
2017-12-27T01:43:02.974Z,35.57
2017-12-27T01:45:40.985Z,35.55
2017-12-27T01:48:14.575Z,35.54
2017-12-27T01:50:52.546Z,35.44
2017-12-27T01:53:26.997Z,35.45
2017-12-27T01:56:02.090Z,35.40
2017-12-27T01:58:43.357Z,35.35
2017-12-27T02:01:15.022Z,35.35
2017-12-27T02:03:46.655Z,35.34
2017-12-27T02:06:20.645Z,35.35
2017-12-27T02:08:52.163Z,35.27
2017-12-27T02:11:23.481Z,35.08
2017-12-27T02:13:54.916Z,35.04
2017-12-27T02:16:27.553Z,35.11
2017-12-27T02:18:59.398Z,34.88
2017-12-27T02:21:30.571Z,34.81
2017-12-27T02:24:02.954Z,34.83
2017-12-27T02:26:34.210Z,35.01
2017-12-27T02:29:10.580Z,34.79
2017-12-27T02:31:42.419Z,34.83
2017-12-27T02:35:27.559Z,34.68
2017-12-27T02:38:00.877Z,34.71
2017-12-27T02:40:35.532Z,34.65
2017-12-27T02:43:10.863Z,34.60
2017-12-27T02:45:43.907Z,34.71
2017-12-27T02:51:06.566Z,34.49
2017-12-27T02:53:40.267Z,34.44
2017-12-27T02:56:16.051Z,34.46
2017-12-27T02:58:47.324Z,34.36
2017-12-27T03:01:19.401Z,34.33
2017-12-27T03:03:53.248Z,34.31
2017-12-27T03:06:24.549Z,34.28
2017-12-27T03:14:02.641Z,34.25
2017-12-27T03:16:37.616Z,34.30
2017-12-27T03:19:14.469Z,34.13
2017-12-27T03:21:50.187Z,34.12
2017-12-27T03:24:22.958Z,34.14
2017-12-27T03:26:55.431Z,34.14
2017-12-27T03:29:27.910Z,34.11
2017-12-27T03:32:01.501Z,34.16
2017-12-27T03:34:33.216Z,34.16
2017-12-27T03:37:05.927Z,34.07
2017-12-27T03:42:37.656Z,34.07
2017-12-27T03:54:03.800Z,33.74
2017-12-27T03:56:38.303Z,33.79
2017-12-27T04:02:06.298Z,33.72
2017-12-27T04:04:39.059Z,33.63
2017-12-27T04:07:10.365Z,33.67
2017-12-27T04:09:41.753Z,33.68
2017-12-27T04:12:14.568Z,33.58
2017-12-27T04:14:49.250Z,33.61
2017-12-27T04:17:22.684Z,33.50
2017-12-27T04:20:12.727Z,33.39
2017-12-27T04:22:44.193Z,33.44
2017-12-27T04:25:15.737Z,33.38
2017-12-27T04:27:47.207Z,33.39
2017-12-27T04:30:26.114Z,33.41
2017-12-27T04:32:57.534Z,33.34
2017-12-27T04:35:28.954Z,33.36
2017-12-27T04:38:00.176Z,33.33
2017-12-27T04:40:31.370Z,33.33
2017-12-27T04:43:07.572Z,33.34
2017-12-27T04:45:38.721Z,33.25
2017-12-27T04:48:12.374Z,33.32
2017-12-27T04:50:55.638Z,33.29
2017-12-27T04:53:27.650Z,33.24
2017-12-27T04:55:59.351Z,33.12
2017-12-27T05:07:41.939Z,33.02
2017-12-27T05:10:16.078Z,33.02
2017-12-27T05:12:49.920Z,33.02
2017-12-27T05:15:24.656Z,32.86
2017-12-27T05:21:06.797Z,32.93
2017-12-27T05:23:42.333Z,32.92
2017-12-27T05:45:31.357Z,32.75
2017-12-27T06:07:08.333Z,33.10
2017-12-27T06:57:13.758Z,32.27
2017-12-27T07:02:57.109Z,32.20
2017-12-27T07:05:29.099Z,32.20
2017-12-27T07:08:00.749Z,32.05
2017-12-27T07:10:35.311Z,31.95
2017-12-27T07:38:26.605Z,31.78
2017-12-27T07:44:10.822Z,31.75
2017-12-27T07:56:33.214Z,31.74
2017-12-27T08:05:25.033Z,32.73
2017-12-27T08:14:26.518Z,31.92
2017-12-27T08:17:20.837Z,31.76
2017-12-27T08:19:58.508Z,31.37
2017-12-27T08:22:44.244Z,31.88
2017-12-27T08:34:50.091Z,31.71
2017-12-27T08:37:33.327Z,31.99
2017-12-27T08:40:11.841Z,32.17
2017-12-27T08:46:00.319Z,32.39
2017-12-27T08:48:40.740Z,32.33
2017-12-27T08:54:18.985Z,32.15
2017-12-27T08:56:56.688Z,32.24
2017-12-27T08:59:32.301Z,32.36
2017-12-27T09:05:14.413Z,32.19
2017-12-27T09:07:58.422Z,32.91
2017-12-27T09:10:52.649Z,32.52
2017-12-27T09:13:40.951Z,33.34
2017-12-27T09:34:53.309Z,33.00
2017-12-27T09:37:29.527Z,33.11
2017-12-27T09:40:07.359Z,33.22
